createdAt,value
2022-09-12T00:00:08.280Z,9.18
2022-09-12T00:00:39.820Z,8.43
2022-09-12T00:01:14.527Z,10.68
2022-09-12T00:01:46.146Z,8.32
2022-09-12T00:02:17.738Z,7.72
2022-09-12T00:02:55.775Z,7.90
2022-09-12T00:03:27.325Z,7.70
2022-09-12T00:04:00.820Z,9.02
2022-09-12T00:04:32.313Z,8.00
2022-09-12T00:05:04.333Z,8.80
2022-09-12T00:05:45.338Z,7.82
2022-09-12T00:06:23.479Z,7.80
2022-09-12T00:06:55.002Z,8.63
2022-09-12T00:07:26.534Z,7.60
2022-09-12T00:07:58.119Z,7.72
2022-09-12T00:08:29.622Z,9.35
2022-09-12T00:09:05.029Z,9.85
2022-09-12T00:09:36.539Z,7.43
2022-09-12T00:10:08.925Z,9.17
2022-09-12T00:10:42.169Z,8.00
2022-09-12T00:11:14.016Z,8.73
2022-09-12T00:11:46.937Z,10.10
2022-09-12T00:12:18.457Z,10.25
2022-09-12T00:12:50.091Z,8.30
2022-09-12T00:13:21.607Z,8.27
2022-09-12T00:14:00.001Z,9.15
2022-09-12T00:14:31.755Z,10.43
2022-09-12T00:15:04.064Z,7.72
2022-09-12T00:15:43.340Z,8.07
2022-09-12T00:16:26.190Z,8.65
2022-09-12T00:16:59.584Z,8.35
2022-09-12T00:17:31.105Z,9.05
2022-09-12T00:18:02.601Z,11.50
2022-09-12T00:18:34.530Z,8.55
2022-09-12T00:19:07.357Z,9.43
2022-09-12T00:19:38.863Z,8.30
2022-09-12T00:20:11.143Z,8.95
2022-09-12T00:20:44.621Z,8.85
2022-09-12T00:21:17.937Z,7.93
2022-09-12T00:21:49.490Z,7.65
2022-09-12T00:22:20.992Z,8.48
2022-09-12T00:22:52.489Z,8.52
2022-09-12T00:23:24.009Z,8.20
2022-09-12T00:23:55.893Z,9.10
2022-09-12T00:24:27.405Z,9.30
2022-09-12T00:24:58.925Z,10.88
2022-09-12T00:25:31.299Z,9.38
2022-09-12T00:26:05.988Z,10.00
2022-09-12T00:26:37.532Z,9.10
2022-09-12T00:27:09.039Z,9.38
2022-09-12T00:27:40.541Z,9.50
2022-09-12T00:28:13.653Z,8.85
2022-09-12T00:28:45.972Z,9.68
2022-09-12T00:29:19.861Z,10.40
2022-09-12T00:29:51.461Z,10.05
2022-09-12T00:30:22.986Z,9.93
2022-09-12T00:30:54.582Z,9.65
2022-09-12T00:31:27.995Z,8.88
2022-09-12T00:31:59.615Z,10.07
2022-09-12T00:32:31.272Z,9.98
2022-09-12T00:33:02.783Z,10.18
2022-09-12T00:33:34.993Z,10.90
2022-09-12T00:34:06.503Z,9.63
2022-09-12T00:34:38.039Z,9.48
2022-09-12T00:35:09.558Z,10.13
2022-09-12T00:35:45.819Z,9.15
2022-09-12T00:36:20.024Z,10.20
2022-09-12T00:36:51.721Z,12.57
2022-09-12T00:37:23.229Z,10.63
2022-09-12T00:37:54.925Z,11.07
2022-09-12T00:38:26.520Z,9.85
2022-09-12T00:38:58.330Z,10.35
2022-09-12T00:39:29.843Z,8.88
2022-09-12T00:40:01.669Z,10.05
2022-09-12T00:40:33.231Z,9.15
2022-09-12T00:41:06.452Z,10.48
2022-09-12T00:41:40.001Z,8.15
2022-09-12T00:42:12.185Z,8.95
2022-09-12T00:42:43.685Z,9.63
2022-09-12T00:43:35.403Z,8.50
2022-09-12T00:44:10.014Z,10.05
2022-09-12T00:44:47.814Z,10.95
2022-09-12T00:45:24.455Z,9.32
2022-09-12T00:45:58.247Z,9.88
2022-09-12T00:46:52.173Z,10.10
2022-09-12T00:47:31.949Z,8.80
2022-09-12T00:48:04.535Z,9.85
2022-09-12T00:48:43.919Z,8.60
2022-09-12T00:49:33.712Z,8.43
2022-09-12T00:50:07.719Z,9.80
2022-09-12T00:50:39.243Z,9.10
2022-09-12T00:51:11.259Z,10.27
2022-09-12T00:51:49.229Z,10.65
2022-09-12T00:52:24.113Z,10.20
2022-09-12T00:53:02.731Z,10.77
2022-09-12T00:53:34.657Z,8.75
2022-09-12T00:54:12.410Z,11.15
2022-09-12T00:54:50.071Z,10.88
2022-09-12T00:55:26.304Z,9.80
2022-09-12T00:55:59.121Z,10.05
2022-09-12T00:56:31.146Z,8.98
2022-09-12T00:57:06.529Z,11.27
2022-09-12T00:57:50.749Z,9.00
2022-09-12T00:58:26.313Z,10.88
2022-09-12T00:59:05.413Z,10.20
2022-09-12T00:59:45.566Z,9.07
2022-09-12T01:00:20.374Z,9.90
2022-09-12T01:00:52.446Z,10.30
2022-09-12T01:01:25.445Z,9.37
2022-09-12T01:01:58.974Z,9.60
2022-09-12T01:02:30.819Z,9.02
2022-09-12T01:03:09.505Z,8.20
2022-09-12T01:03:41.718Z,8.85
2022-09-12T01:04:13.777Z,9.50
2022-09-12T01:04:45.619Z,9.77
2022-09-12T01:05:17.742Z,8.68
2022-09-12T01:06:14.101Z,8.95
2022-09-12T01:06:47.065Z,8.23
2022-09-12T01:07:19.638Z,7.23
2022-09-12T01:07:52.331Z,10.13
2022-09-12T01:08:25.879Z,8.70
2022-09-12T01:08:59.307Z,10.80
2022-09-12T01:09:30.838Z,8.90
2022-09-12T01:10:03.194Z,8.63
2022-09-12T01:10:37.661Z,7.80
2022-09-12T01:11:11.181Z,8.43
2022-09-12T01:11:46.145Z,8.60
2022-09-12T01:12:17.825Z,9.80
2022-09-12T01:12:50.040Z,10.00
2022-09-12T01:13:22.542Z,9.85
2022-09-12T01:13:54.789Z,8.20
2022-09-12T01:14:26.550Z,9.45
2022-09-12T01:14:58.074Z,8.57
2022-09-12T01:15:30.817Z,8.93
2022-09-12T01:16:06.695Z,8.52
2022-09-12T01:16:38.583Z,9.82
2022-09-12T01:17:14.961Z,10.43
2022-09-12T01:17:52.155Z,9.52
2022-09-12T01:18:34.354Z,9.93
2022-09-12T01:19:12.713Z,8.45
2022-09-12T01:20:17.001Z,10.88
2022-09-12T01:21:15.206Z,10.02
2022-09-12T01:22:12.790Z,10.77
2022-09-12T01:23:11.913Z,9.75
2022-09-12T01:23:58.430Z,9.50
2022-09-12T01:24:51.795Z,10.82
2022-09-12T01:26:05.363Z,11.70
2022-09-12T01:27:11.063Z,9.10
2022-09-12T01:28:10.213Z,9.93
2022-09-12T01:29:03.590Z,11.18
2022-09-12T01:30:12.549Z,10.95
2022-09-12T01:30:47.662Z,11.65
2022-09-12T01:32:05.294Z,10.52
2022-09-12T01:33:01.440Z,9.63
2022-09-12T01:34:12.170Z,11.10
2022-09-12T01:34:59.335Z,10.50
2022-09-12T01:35:44.997Z,9.65
2022-09-12T01:36:51.207Z,10.98
2022-09-12T01:37:45.835Z,11.37
2022-09-12T01:38:23.455Z,10.43
2022-09-12T01:39:21.166Z,11.82
2022-09-12T01:40:15.951Z,11.68
2022-09-12T01:41:19.325Z,10.43
2022-09-12T01:41:52.048Z,9.95
2022-09-12T01:42:46.998Z,10.77
2022-09-12T01:43:26.680Z,11.77
2022-09-12T01:44:23.506Z,10.57
2022-09-12T01:45:09.405Z,11.23
2022-09-12T01:45:53.128Z,11.17
2022-09-12T01:46:49.158Z,10.32
2022-09-12T01:47:40.744Z,11.07
2022-09-12T01:48:44.339Z,10.85
2022-09-12T01:49:37.573Z,11.23
2022-09-12T01:50:35.587Z,11.25
2022-09-12T01:51:26.396Z,10.77
2022-09-12T01:52:25.094Z,11.07
2022-09-12T01:53:04.745Z,10.70
2022-09-12T01:53:46.765Z,12.13
2022-09-12T01:54:27.318Z,11.03
2022-09-12T01:55:10.267Z,11.10
2022-09-12T01:55:47.028Z,11.00
2022-09-12T01:56:26.543Z,13.32
2022-09-12T01:57:03.878Z,11.95
2022-09-12T01:57:44.691Z,11.05
2022-09-12T01:58:22.576Z,11.07
2022-09-12T01:59:16.834Z,11.65
2022-09-12T01:59:54.277Z,11.30
2022-09-12T02:01:18.090Z,11.33
2022-09-12T02:02:00.910Z,9.60
2022-09-12T02:02:55.504Z,11.13
2022-09-12T02:03:56.187Z,9.85
2022-09-12T02:04:44.822Z,10.02
2022-09-12T02:05:34.833Z,10.65
2022-09-12T02:06:12.878Z,12.13
2022-09-12T02:06:49.311Z,10.80
2022-09-12T02:07:28.992Z,9.95
2022-09-12T02:08:03.358Z,10.23
2022-09-12T02:08:44.239Z,10.50
2022-09-12T02:09:27.964Z,10.73
2022-09-12T02:10:12.709Z,10.10
2022-09-12T02:10:49.471Z,10.65
2022-09-12T02:11:21.682Z,9.48
2022-09-12T02:11:59.850Z,9.93
2022-09-12T02:12:40.186Z,9.13
2022-09-12T02:13:29.598Z,9.88
2022-09-12T02:14:06.526Z,9.63
2022-09-12T02:14:42.648Z,11.75
2022-09-12T02:15:17.186Z,10.87
2022-09-12T02:16:00.317Z,9.80
2022-09-12T02:16:37.215Z,10.65
2022-09-12T02:17:13.440Z,9.95
2022-09-12T02:17:49.950Z,10.95
2022-09-12T02:18:21.576Z,9.40
2022-09-12T02:18:57.491Z,10.88
2022-09-12T02:19:35.898Z,9.45
2022-09-12T02:20:48.104Z,10.10
2022-09-12T02:21:22.520Z,9.38
2022-09-12T02:21:56.993Z,10.30
2022-09-12T02:22:31.182Z,9.75
2022-09-12T02:23:05.982Z,9.30
2022-09-12T02:23:47.710Z,8.88
2022-09-12T02:24:21.246Z,8.38
2022-09-12T02:24:57.344Z,11.23
2022-09-12T02:25:29.604Z,10.90
2022-09-12T02:26:08.778Z,8.70
2022-09-12T02:26:59.931Z,11.10
2022-09-12T02:27:58.763Z,10.13
2022-09-12T02:28:34.229Z,10.17
2022-09-12T02:29:07.025Z,9.38
2022-09-12T02:29:38.644Z,10.18
2022-09-12T02:30:14.332Z,9.50
2022-09-12T02:31:01.091Z,10.82
2022-09-12T02:31:55.618Z,10.60
2022-09-12T02:33:05.983Z,10.10
2022-09-12T02:34:02.038Z,10.15
2022-09-12T02:35:12.026Z,9.82
2022-09-12T02:35:58.121Z,10.05
2022-09-12T02:36:35.527Z,11.63
2022-09-12T02:37:10.952Z,10.98
2022-09-12T02:38:09.283Z,10.68
2022-09-12T02:38:45.852Z,12.45
2022-09-12T02:39:21.199Z,10.60
2022-09-12T02:39:57.297Z,12.70
2022-09-12T02:40:30.956Z,11.32
2022-09-12T02:41:02.540Z,9.77
2022-09-12T02:41:34.188Z,10.77
2022-09-12T02:42:06.096Z,12.05
2022-09-12T02:42:38.085Z,11.30
2022-09-12T02:43:09.640Z,10.57
2022-09-12T02:43:41.330Z,10.50
2022-09-12T02:44:13.080Z,11.15
2022-09-12T02:44:44.587Z,10.60
2022-09-12T02:45:17.435Z,10.80
2022-09-12T02:45:49.269Z,11.27
2022-09-12T02:46:26.714Z,11.90
2022-09-12T02:47:20.580Z,11.95
2022-09-12T02:47:58.837Z,12.10
2022-09-12T02:48:33.819Z,10.17
2022-09-12T02:49:05.459Z,10.95
2022-09-12T02:49:37.385Z,10.32
2022-09-12T02:50:09.194Z,12.55
2022-09-12T02:50:42.044Z,11.63
2022-09-12T02:51:13.846Z,10.85
2022-09-12T02:51:46.561Z,11.52
2022-09-12T02:52:18.435Z,11.65
2022-09-12T02:52:51.123Z,11.27
2022-09-12T02:53:23.342Z,10.80
2022-09-12T02:53:55.239Z,11.43
2022-09-12T02:54:28.081Z,12.02
2022-09-12T02:54:59.878Z,13.85
2022-09-12T02:55:33.529Z,12.35
2022-09-12T02:56:10.816Z,12.57
2022-09-12T02:56:44.323Z,12.88
2022-09-12T02:57:23.031Z,13.45
2022-09-12T02:57:54.836Z,11.93
2022-09-12T02:58:30.995Z,13.93
2022-09-12T02:59:08.176Z,12.25
2022-09-12T02:59:39.723Z,13.00
2022-09-12T03:00:12.376Z,15.40
2022-09-12T03:01:11.537Z,12.38
2022-09-12T03:01:58.137Z,14.50
2022-09-12T03:02:52.901Z,12.65
2022-09-12T03:04:01.860Z,14.60
2022-09-12T03:04:55.609Z,12.85
2022-09-12T03:05:32.904Z,12.23
2022-09-12T03:06:28.415Z,13.43
2022-09-12T03:07:18.836Z,12.32
2022-09-12T03:08:11.832Z,13.80
2022-09-12T03:09:00.334Z,12.93
2022-09-12T03:09:48.162Z,12.57
2022-09-12T03:10:48.721Z,13.48
2022-09-12T03:12:04.243Z,11.43
2022-09-12T03:12:53.964Z,11.82
2022-09-12T03:13:48.376Z,12.70
2022-09-12T03:14:53.611Z,12.63
2022-09-12T03:15:32.078Z,11.60
2022-09-12T03:16:19.790Z,13.20
2022-09-12T03:17:02.792Z,13.83
2022-09-12T03:17:47.252Z,13.07
2022-09-12T03:18:37.219Z,17.85
2022-09-12T03:19:33.438Z,12.57
2022-09-12T03:20:09.364Z,16.27
2022-09-12T03:20:57.449Z,12.15
2022-09-12T03:21:37.236Z,13.00
2022-09-12T03:22:22.271Z,14.45
2022-09-12T03:22:58.434Z,12.73
2022-09-12T03:23:48.591Z,13.40
2022-09-12T03:24:57.269Z,13.77
2022-09-12T03:25:35.717Z,12.80
2022-09-12T03:26:31.938Z,13.25
2022-09-12T03:27:16.374Z,13.45
2022-09-12T03:28:01.327Z,13.20
2022-09-12T03:28:35.683Z,13.13
2022-09-12T03:29:08.529Z,12.45
2022-09-12T03:29:41.880Z,14.32
2022-09-12T03:30:13.524Z,11.85
2022-09-12T03:30:47.343Z,14.02
2022-09-12T03:31:20.033Z,13.37
2022-09-12T03:31:56.920Z,12.73
2022-09-12T03:32:48.635Z,14.23
2022-09-12T03:33:24.953Z,14.18
2022-09-12T03:33:56.439Z,13.18
2022-09-12T03:34:28.422Z,11.25
2022-09-12T03:34:59.927Z,18.20
2022-09-12T03:35:31.451Z,13.95
2022-09-12T03:36:03.146Z,13.30
2022-09-12T03:36:34.685Z,13.20
2022-09-12T03:37:06.669Z,12.63
2022-09-12T03:37:38.429Z,13.23
2022-09-12T03:38:09.990Z,12.57
2022-09-12T03:38:41.525Z,11.60
2022-09-12T03:39:13.402Z,13.98
2022-09-12T03:39:44.968Z,11.73
2022-09-12T03:40:16.859Z,13.18
2022-09-12T03:40:52.671Z,13.52
2022-09-12T03:41:26.174Z,14.60
2022-09-12T03:41:58.142Z,13.88
2022-09-12T03:42:29.630Z,14.23
2022-09-12T03:43:01.357Z,14.10
2022-09-12T03:43:32.935Z,11.85
2022-09-12T03:44:04.493Z,12.13
2022-09-12T03:44:35.981Z,11.82
2022-09-12T03:45:08.919Z,13.68
2022-09-12T03:45:40.522Z,13.77
2022-09-12T03:46:13.493Z,13.38
2022-09-12T03:46:45.145Z,13.50
2022-09-12T03:47:16.653Z,12.73
2022-09-12T03:47:48.155Z,14.33
2022-09-12T03:48:19.673Z,14.80
2022-09-12T03:48:51.261Z,13.40
2022-09-12T03:49:22.801Z,13.60
2022-09-12T03:49:54.313Z,13.63
2022-09-12T03:50:25.936Z,11.75
2022-09-12T03:51:05.771Z,12.40
2022-09-12T03:51:38.273Z,15.75
2022-09-12T03:52:09.773Z,14.57
2022-09-12T03:52:41.954Z,14.02
2022-09-12T03:53:17.036Z,14.37
2022-09-12T03:53:49.085Z,12.57
2022-09-12T03:54:20.604Z,12.30
2022-09-12T03:54:52.194Z,13.32
2022-09-12T03:55:23.700Z,14.73
2022-09-12T03:55:55.219Z,11.80
2022-09-12T03:56:26.753Z,13.63
2022-09-12T03:56:58.270Z,12.20
2022-09-12T03:57:29.829Z,13.07
2022-09-12T03:58:01.333Z,14.68
2022-09-12T03:58:33.865Z,16.33
2022-09-12T03:59:06.784Z,14.45
2022-09-12T03:59:38.402Z,14.07
2022-09-12T04:00:10.275Z,13.90
2022-09-12T04:00:43.069Z,13.73
2022-09-12T04:01:17.691Z,14.82
2022-09-12T04:01:49.237Z,14.38
2022-09-12T04:02:21.186Z,13.45
2022-09-12T04:02:57.379Z,13.90
2022-09-12T04:03:28.877Z,13.32
2022-09-12T04:04:00.467Z,16.03
2022-09-12T04:04:32.377Z,12.98
2022-09-12T04:05:04.734Z,12.73
2022-09-12T04:05:36.261Z,14.57
2022-09-12T04:06:09.929Z,14.30
2022-09-12T04:06:42.882Z,14.65
2022-09-12T04:07:15.999Z,14.88
2022-09-12T04:07:47.570Z,14.02
2022-09-12T04:08:19.075Z,14.85
2022-09-12T04:08:52.627Z,13.27
2022-09-12T04:09:24.592Z,12.90
2022-09-12T04:09:56.412Z,14.07
2022-09-12T04:10:27.966Z,13.68
2022-09-12T04:11:11.021Z,13.93
2022-09-12T04:11:42.528Z,13.32
2022-09-12T04:12:14.090Z,12.82
2022-09-12T04:12:45.642Z,15.98
2022-09-12T04:13:17.151Z,12.55
2022-09-12T04:13:48.804Z,13.77
2022-09-12T04:14:20.472Z,13.88
2022-09-12T04:14:51.992Z,12.80
2022-09-12T04:15:23.513Z,13.18
2022-09-12T04:15:59.612Z,12.60
2022-09-12T04:16:32.358Z,14.15
2022-09-12T04:17:04.185Z,12.55
2022-09-12T04:17:35.746Z,11.85
2022-09-12T04:18:07.311Z,13.27
2022-09-12T04:18:38.977Z,13.55
2022-09-12T04:19:11.787Z,12.20
2022-09-12T04:19:43.290Z,12.18
2022-09-12T04:20:14.913Z,13.27
2022-09-12T04:20:46.414Z,13.25
2022-09-12T04:21:19.811Z,13.65
2022-09-12T04:21:51.336Z,13.55
2022-09-12T04:22:22.855Z,12.13
2022-09-12T04:22:54.438Z,12.57
2022-09-12T04:23:25.922Z,13.75
2022-09-12T04:23:57.568Z,13.07
2022-09-12T04:24:29.138Z,12.45
2022-09-12T04:25:00.774Z,13.23
2022-09-12T04:25:32.308Z,12.17
2022-09-12T04:26:07.855Z,12.75
2022-09-12T04:26:39.848Z,13.52
2022-09-12T04:27:11.328Z,12.30
2022-09-12T04:27:42.907Z,14.35
2022-09-12T04:28:14.415Z,12.38
2022-09-12T04:28:46.888Z,12.88
2022-09-12T04:29:18.590Z,13.65
2022-09-12T04:29:50.092Z,14.32
2022-09-12T04:30:21.716Z,13.30
2022-09-12T04:30:53.319Z,13.13
2022-09-12T04:31:25.740Z,12.30
2022-09-12T04:31:57.440Z,15.07
2022-09-12T04:32:31.120Z,11.88
2022-09-12T04:33:07.429Z,14.18
2022-09-12T04:33:39.900Z,14.05
2022-09-12T04:34:11.558Z,14.25
2022-09-12T04:34:43.084Z,12.07
2022-09-12T04:35:14.698Z,13.10
2022-09-12T04:35:46.215Z,15.43
2022-09-12T04:36:17.870Z,12.20
2022-09-12T04:36:49.448Z,13.25
2022-09-12T04:37:21.842Z,12.98
2022-09-12T04:37:53.599Z,14.02
2022-09-12T04:38:25.222Z,14.13
2022-09-12T04:38:56.747Z,13.77
2022-09-12T04:39:28.280Z,13.13
2022-09-12T04:39:59.836Z,14.68
2022-09-12T04:40:31.513Z,12.32
2022-09-12T04:41:16.550Z,12.93
2022-09-12T04:41:48.075Z,12.83
2022-09-12T04:42:19.577Z,13.20
2022-09-12T04:42:51.104Z,13.70
2022-09-12T04:43:22.637Z,14.10
2022-09-12T04:44:01.634Z,13.30
2022-09-12T04:44:33.156Z,13.35
2022-09-12T04:45:06.225Z,14.93
2022-09-12T04:45:37.888Z,13.23
2022-09-12T04:46:11.550Z,15.18
2022-09-12T04:46:45.922Z,15.35
2022-09-12T04:47:17.409Z,15.63
2022-09-12T04:47:49.182Z,13.02
2022-09-12T04:48:20.740Z,13.70
2022-09-12T04:48:56.679Z,13.52
2022-09-12T04:49:28.694Z,14.13
2022-09-12T04:50:00.176Z,11.85
2022-09-12T04:50:31.717Z,13.48
2022-09-12T04:51:11.544Z,14.68
2022-09-12T04:51:43.505Z,13.35
2022-09-12T04:52:15.009Z,15.10
2022-09-12T04:52:54.152Z,12.97
2022-09-12T04:53:25.640Z,14.88
2022-09-12T04:54:02.092Z,13.90
2022-09-12T04:54:34.265Z,13.38
2022-09-12T04:55:06.343Z,12.63
2022-09-12T04:55:37.856Z,13.63
2022-09-12T04:56:11.643Z,13.70
2022-09-12T04:56:45.446Z,13.73
2022-09-12T04:57:16.939Z,14.30
2022-09-12T04:57:48.682Z,14.57
2022-09-12T04:58:20.172Z,13.53
2022-09-12T04:58:52.334Z,13.45
2022-09-12T04:59:23.907Z,13.77
2022-09-12T04:59:55.443Z,13.40
2022-09-12T05:00:27.021Z,14.93
2022-09-12T05:01:11.743Z,13.88
2022-09-12T05:01:43.408Z,15.77
2022-09-12T05:02:15.069Z,13.27
2022-09-12T05:02:46.644Z,14.90
2022-09-12T05:03:18.152Z,13.73
2022-09-12T05:03:50.854Z,12.80
2022-09-12T05:04:22.535Z,12.85
2022-09-12T05:04:54.255Z,12.80
2022-09-12T05:05:25.837Z,13.50
2022-09-12T05:05:57.341Z,15.18
2022-09-12T05:06:31.841Z,14.38
2022-09-12T05:07:03.378Z,13.80
2022-09-12T05:07:35.593Z,15.93
2022-09-12T05:08:07.176Z,13.38
2022-09-12T05:08:38.994Z,13.23
2022-09-12T05:09:12.338Z,13.73
2022-09-12T05:09:43.857Z,16.25
2022-09-12T05:10:15.394Z,16.73
2022-09-12T05:10:46.902Z,15.18
2022-09-12T05:11:28.231Z,13.93
2022-09-12T05:12:06.100Z,12.70
2022-09-12T05:12:37.656Z,14.77
2022-09-12T05:13:09.522Z,15.18
2022-09-12T05:13:41.659Z,14.18
2022-09-12T05:14:13.263Z,12.73
2022-09-12T05:14:44.768Z,14.70
2022-09-12T05:15:16.302Z,13.52
2022-09-12T05:16:01.886Z,16.80
2022-09-12T05:16:33.573Z,13.15
2022-09-12T05:17:06.064Z,13.55
2022-09-12T05:17:37.623Z,13.32
2022-09-12T05:18:09.110Z,13.80
2022-09-12T05:18:42.271Z,15.07
2022-09-12T05:19:13.823Z,15.48
2022-09-12T05:19:45.446Z,14.80
2022-09-12T05:20:17.407Z,14.37
2022-09-12T05:20:49.049Z,14.35
2022-09-12T05:21:23.169Z,13.45
2022-09-12T05:21:54.657Z,13.82
2022-09-12T05:22:26.171Z,14.73
2022-09-12T05:22:57.668Z,14.60
2022-09-12T05:23:29.626Z,14.10
2022-09-12T05:24:01.172Z,14.75
2022-09-12T05:24:32.935Z,14.93
2022-09-12T05:25:05.750Z,13.18
2022-09-12T05:25:37.289Z,13.30
2022-09-12T05:26:11.555Z,13.38
2022-09-12T05:26:43.063Z,12.40
2022-09-12T05:27:15.122Z,12.80
2022-09-12T05:27:50.431Z,15.60
2022-09-12T05:28:22.769Z,15.68
2022-09-12T05:28:55.092Z,15.15
2022-09-12T05:29:26.681Z,14.35
2022-09-12T05:29:58.172Z,13.98
2022-09-12T05:30:29.702Z,14.95
2022-09-12T05:31:27.627Z,14.40
2022-09-12T05:31:59.128Z,14.07
2022-09-12T05:32:33.765Z,13.05
2022-09-12T05:33:05.335Z,14.15
2022-09-12T05:33:38.563Z,15.27
2022-09-12T05:34:10.271Z,16.42
2022-09-12T05:34:41.947Z,16.85
2022-09-12T05:35:13.481Z,15.40
2022-09-12T05:35:52.185Z,14.88
2022-09-12T05:36:27.719Z,14.20
2022-09-12T05:36:59.296Z,13.43
2022-09-12T05:37:30.846Z,14.27
2022-09-12T05:38:02.361Z,13.40
2022-09-12T05:38:37.705Z,13.63
2022-09-12T05:39:09.443Z,14.13
2022-09-12T05:39:41.206Z,13.93
2022-09-12T05:40:16.156Z,14.30
2022-09-12T05:40:47.676Z,15.20
2022-09-12T05:41:27.801Z,16.02
2022-09-12T05:41:59.285Z,13.98
2022-09-12T05:42:30.869Z,14.23
2022-09-12T05:43:02.401Z,13.68
2022-09-12T05:43:34.701Z,15.73
2022-09-12T05:44:07.576Z,14.85
2022-09-12T05:44:39.136Z,13.68
2022-09-12T05:45:10.837Z,14.70
2022-09-12T05:45:42.494Z,15.80
2022-09-12T05:46:20.099Z,15.35
2022-09-12T05:46:53.582Z,14.65
2022-09-12T05:47:25.083Z,16.23
2022-09-12T05:47:56.569Z,13.73
2022-09-12T05:48:28.897Z,15.45
2022-09-12T05:49:04.111Z,15.50
2022-09-12T05:49:36.147Z,18.95
2022-09-12T05:50:10.881Z,16.80
2022-09-12T05:50:42.467Z,14.93
2022-09-12T05:51:20.354Z,14.02
2022-09-12T05:51:54.215Z,14.88
2022-09-12T05:52:26.459Z,14.57
2022-09-12T05:52:57.966Z,15.52
2022-09-12T05:53:31.041Z,16.63
2022-09-12T05:54:03.551Z,13.57
2022-09-12T05:54:35.077Z,16.65
2022-09-12T05:55:07.074Z,15.57
2022-09-12T05:55:38.588Z,16.88
2022-09-12T05:56:12.599Z,18.00
2022-09-12T05:56:45.028Z,15.95
2022-09-12T05:57:16.652Z,14.90
2022-09-12T05:57:48.205Z,16.73
2022-09-12T05:58:20.493Z,16.80
2022-09-12T05:58:58.564Z,15.10
2022-09-12T05:59:32.459Z,14.13
2022-09-12T06:00:05.941Z,15.18
2022-09-12T06:00:37.480Z,16.58
2022-09-12T06:01:12.386Z,14.77
2022-09-12T06:01:44.674Z,15.40
2022-09-12T06:02:16.253Z,17.15
2022-09-12T06:02:54.074Z,17.27
2022-09-12T06:03:25.612Z,16.65
2022-09-12T06:04:02.109Z,15.25
2022-09-12T06:04:33.603Z,17.33
2022-09-12T06:05:05.425Z,15.02
2022-09-12T06:05:36.921Z,16.52
2022-09-12T06:06:09.114Z,15.73
2022-09-12T06:06:44.885Z,16.17
2022-09-12T06:07:16.394Z,16.83
2022-09-12T06:07:48.416Z,15.45
2022-09-12T06:08:20.000Z,14.80
2022-09-12T06:08:54.707Z,15.80
2022-09-12T06:09:26.286Z,16.17
2022-09-12T06:09:59.275Z,16.60
2022-09-12T06:10:30.974Z,15.77
2022-09-12T06:11:04.453Z,14.52
2022-09-12T06:11:40.793Z,15.95
2022-09-12T06:12:12.322Z,17.45
2022-09-12T06:12:43.836Z,16.52
2022-09-12T06:13:15.314Z,15.73
2022-09-12T06:13:47.166Z,16.08
2022-09-12T06:14:19.513Z,14.93
2022-09-12T06:14:51.064Z,14.77
2022-09-12T06:15:22.851Z,15.60
2022-09-12T06:15:54.530Z,15.85
2022-09-12T06:16:28.929Z,16.30
2022-09-12T06:17:00.610Z,14.73
2022-09-12T06:17:32.386Z,15.65
2022-09-12T06:18:04.051Z,14.85
2022-09-12T06:18:36.117Z,15.77
2022-09-12T06:19:19.021Z,15.25
2022-09-12T06:19:51.097Z,15.65
2022-09-12T06:20:22.614Z,14.07
2022-09-12T06:20:54.099Z,15.30
2022-09-12T06:21:26.817Z,14.85
2022-09-12T06:21:58.826Z,16.70
2022-09-12T06:22:31.637Z,14.77
2022-09-12T06:23:03.137Z,15.68
2022-09-12T06:23:34.933Z,16.60
2022-09-12T06:24:07.583Z,15.30
2022-09-12T06:24:39.089Z,14.25
2022-09-12T06:25:10.614Z,15.38
2022-09-12T06:25:48.091Z,17.13
2022-09-12T06:26:23.355Z,15.27
2022-09-12T06:26:54.880Z,13.45
2022-09-12T06:27:26.655Z,13.65
2022-09-12T06:27:58.183Z,16.23
2022-09-12T06:28:30.549Z,13.10
2022-09-12T06:29:02.372Z,13.45
2022-09-12T06:29:33.902Z,14.15
2022-09-12T06:30:06.947Z,14.27
2022-09-12T06:30:38.570Z,14.70
2022-09-12T06:31:13.125Z,15.80
2022-09-12T06:31:45.504Z,13.17
2022-09-12T06:32:17.014Z,14.93
2022-09-12T06:32:48.523Z,12.85
2022-09-12T06:33:20.856Z,13.73
2022-09-12T06:33:54.215Z,13.85
2022-09-12T06:34:27.097Z,15.48
2022-09-12T06:34:58.745Z,15.93
2022-09-12T06:35:30.263Z,13.07
2022-09-12T06:36:12.505Z,12.75
2022-09-12T06:36:47.217Z,13.75
2022-09-12T06:37:18.782Z,12.80
2022-09-12T06:37:50.293Z,12.88
2022-09-12T06:38:21.812Z,12.63
2022-09-12T06:39:11.191Z,12.80
2022-09-12T06:39:42.729Z,13.43
2022-09-12T06:40:14.485Z,13.75
2022-09-12T06:40:46.366Z,12.63
2022-09-12T06:41:17.920Z,13.02
2022-09-12T06:41:51.360Z,12.02
2022-09-12T06:42:23.263Z,15.15
2022-09-12T06:42:54.778Z,13.00
2022-09-12T06:43:27.277Z,12.45
2022-09-12T06:43:59.456Z,12.63
2022-09-12T06:44:31.683Z,12.70
2022-09-12T06:45:03.329Z,12.48
2022-09-12T06:45:34.825Z,11.57
2022-09-12T06:46:07.607Z,12.38
2022-09-12T06:46:39.162Z,12.73
2022-09-12T06:47:10.884Z,13.30
2022-09-12T06:47:42.399Z,13.20
2022-09-12T06:48:13.918Z,12.93
2022-09-12T06:48:45.643Z,12.95
2022-09-12T06:49:17.841Z,13.30
2022-09-12T06:49:50.965Z,12.80
2022-09-12T06:50:22.478Z,12.75
2022-09-12T06:51:02.889Z,13.23
2022-09-12T06:51:36.293Z,11.95
2022-09-12T06:52:08.739Z,12.48
2022-09-12T06:52:40.448Z,11.32
2022-09-12T06:53:11.993Z,12.05
2022-09-12T06:53:45.305Z,13.10
2022-09-12T06:54:17.255Z,11.57
2022-09-12T06:54:49.172Z,11.73
2022-09-12T06:55:23.576Z,11.52
2022-09-12T06:56:00.626Z,12.55
2022-09-12T06:56:32.307Z,11.95
2022-09-12T06:57:04.306Z,12.18
2022-09-12T06:57:38.819Z,12.18
2022-09-12T06:58:10.882Z,12.90
2022-09-12T06:58:43.463Z,11.57
2022-09-12T06:59:15.042Z,11.90
2022-09-12T06:59:46.561Z,11.30
2022-09-12T07:00:18.213Z,11.88
2022-09-12T07:00:49.998Z,11.10
2022-09-12T07:01:30.449Z,10.48
2022-09-12T07:02:02.022Z,10.95
2022-09-12T07:02:33.715Z,9.25
2022-09-12T07:03:06.845Z,13.68
2022-09-12T07:03:39.218Z,9.50
2022-09-12T07:04:11.562Z,9.80
2022-09-12T07:04:43.441Z,11.43
2022-09-12T07:05:15.616Z,11.25
2022-09-12T07:05:47.704Z,10.77
2022-09-12T07:06:21.111Z,11.23
2022-09-12T07:06:52.803Z,12.27
2022-09-12T07:07:24.649Z,11.27
2022-09-12T07:07:56.255Z,10.73
2022-09-12T07:08:32.549Z,11.90
2022-09-12T07:09:05.968Z,9.80
2022-09-12T07:09:37.537Z,10.80
2022-09-12T07:10:11.941Z,9.67
2022-09-12T07:10:43.522Z,9.32
2022-09-12T07:11:16.267Z,9.52
2022-09-12T07:11:48.033Z,10.63
2022-09-12T07:12:19.785Z,10.10
2022-09-12T07:12:51.348Z,9.75
2022-09-12T07:13:22.927Z,10.98
2022-09-12T07:13:56.392Z,10.80
2022-09-12T07:14:27.890Z,10.15
2022-09-12T07:14:59.398Z,9.38
2022-09-12T07:15:32.052Z,9.60
2022-09-12T07:16:05.533Z,10.82
2022-09-12T07:16:37.441Z,10.25
2022-09-12T07:17:09.101Z,8.73
2022-09-12T07:17:40.718Z,9.63
2022-09-12T07:18:12.264Z,8.68
2022-09-12T07:18:46.143Z,8.93
2022-09-12T07:19:17.788Z,10.30
2022-09-12T07:19:49.343Z,11.60
2022-09-12T07:20:20.840Z,9.07
2022-09-12T07:20:53.037Z,9.73
2022-09-12T07:21:25.037Z,8.38
2022-09-12T07:21:58.686Z,9.27
2022-09-12T07:22:30.389Z,9.25
2022-09-12T07:23:01.937Z,9.85
2022-09-12T07:23:33.465Z,8.77
2022-09-12T07:24:05.725Z,11.40
2022-09-12T07:24:37.327Z,8.77
2022-09-12T07:25:09.034Z,9.30
2022-09-12T07:25:41.185Z,9.27
2022-09-12T07:26:14.822Z,8.07
2022-09-12T07:26:46.343Z,8.52
2022-09-12T07:27:17.853Z,8.57
2022-09-12T07:27:51.207Z,8.80
2022-09-12T07:28:24.676Z,9.00
2022-09-12T07:29:19.117Z,9.25
2022-09-12T07:29:51.419Z,9.00
2022-09-12T07:30:23.236Z,8.02
2022-09-12T07:30:55.204Z,7.88
2022-09-12T07:31:28.063Z,8.00
2022-09-12T07:32:01.614Z,8.07
2022-09-12T07:32:33.385Z,7.03
2022-09-12T07:33:04.951Z,7.25
2022-09-12T07:33:37.037Z,7.82
2022-09-12T07:34:08.834Z,8.13
2022-09-12T07:34:40.377Z,7.40
2022-09-12T07:35:11.943Z,7.57
2022-09-12T07:35:43.443Z,8.85
2022-09-12T07:36:16.652Z,8.18
2022-09-12T07:36:48.153Z,10.55
2022-09-12T07:37:19.645Z,8.17
2022-09-12T07:37:51.226Z,6.65
2022-09-12T07:38:22.787Z,7.78
2022-09-12T07:38:57.888Z,8.45
2022-09-12T07:39:29.531Z,7.25
2022-09-12T07:40:02.296Z,11.50
2022-09-12T07:40:33.865Z,9.20
2022-09-12T07:41:12.585Z,6.93
2022-09-12T07:41:44.217Z,6.43
2022-09-12T07:42:15.717Z,6.45
2022-09-12T07:42:47.889Z,8.03
2022-09-12T07:43:19.411Z,8.07